Time;durP1;ratioP1;P1;durP2;ratioP2;P2;SDS_P1;SDS_P2;PMS_P1;PMS_P2;Temp;Humidity;BMP_temperature;BMP_pressure;BME280_temperature;BME280_humidity;BME280_pressure;Samples;Min_cycle;Max_cycle;Signal;HPM_P1;HPM_P2
2022/11/05 00:09:31;;;;;;;18.60;14.37;;;11.20;99.90;;;;;;5022932;28;20503;-73
2022/11/05 00:18:23;;;;;;;20.03;14.47;;;11.00;99.90;;;;;;5026266;28;20482;-73
2022/11/05 00:25:12;;;;;;;15.93;13.53;;;11.00;99.90;;;;;;5028246;28;20447;-73
2022/11/05 00:27:34;;;;;;;17.13;13.27;;;11.10;99.90;;;;;;4957974;28;20504;-73
2022/11/05 00:30:22;;;;;;;19.27;13.50;;;11.10;99.90;;;;;;4967052;28;20442;-73
2022/11/05 00:33:07;;;;;;;19.10;13.07;;;11.10;99.90;;;;;;5014529;28;20434;-73
2022/11/05 00:35:53;;;;;;;15.97;13.50;;;11.20;99.90;;;;;;5027743;28;20523;-72
2022/11/05 00:38:38;;;;;;;18.80;13.20;;;11.30;99.90;;;;;;5032214;28;20466;-73
2022/11/05 00:41:24;;;;;;;17.00;12.07;;;11.30;99.90;;;;;;5026821;28;20427;-73
2022/11/05 00:50:19;;;;;;;15.93;11.57;;;11.10;99.90;;;;;;5027967;28;21036;-73
2022/11/05 00:53:05;;;;;;;17.10;13.17;;;11.10;99.90;;;;;;5023603;28;20488;-73
2022/11/05 00:55:51;;;;;;;18.97;12.93;;;11.10;99.90;;;;;;5029661;28;20806;-74
2022/11/05 00:58:37;;;;;;;18.40;13.07;;;11.10;99.90;;;;;;5024339;28;20445;-73
2022/11/05 01:01:24;;;;;;;19.23;13.27;;;11.00;99.90;;;;;;5025499;28;20451;-73
2022/11/05 01:04:09;;;;;;;18.40;11.90;;;11.00;99.90;;;;;;5025312;28;20510;-73
2022/11/05 01:06:55;;;;;;;15.37;11.10;;;10.90;99.90;;;;;;5024261;28;20454;-73
2022/11/05 01:09:40;;;;;;;14.20;11.37;;;10.90;99.90;;;;;;5026246;28;20441;-73
2022/11/05 01:12:26;;;;;;;14.27;11.70;;;10.90;99.90;;;;;;5023363;28;20487;-73
2022/11/05 01:15:12;;;;;;;17.17;11.53;;;10.90;99.90;;;;;;5036703;28;20410;-73
2022/11/05 01:17:59;;;;;;;15.03;11.67;;;11.00;99.90;;;;;;5031956;28;20522;-73
2022/11/05 01:20:44;;;;;;;15.17;11.80;;;11.00;99.90;;;;;;5029930;28;20579;-73
2022/11/05 01:23:30;;;;;;;14.17;10.97;;;11.00;99.90;;;;;;5019015;28;20502;-73
2022/11/05 01:26:16;;;;;;;12.57;11.20;;;11.00;99.90;;;;;;5026067;28;20485;-73
2022/11/05 01:29:01;;;;;;;13.33;10.47;;;11.00;99.90;;;;;;5029478;28;20423;-73
2022/11/05 01:31:47;;;;;;;11.73;10.27;;;11.00;99.90;;;;;;5024946;28;20419;-73
2022/11/05 01:34:34;;;;;;;15.67;11.77;;;11.10;99.90;;;;;;5018807;28;20991;-73
2022/11/05 01:37:20;;;;;;;14.13;10.60;;;11.10;99.90;;;;;;5027127;28;20441;-73
2022/11/05 01:40:07;;;;;;;13.23;10.47;;;11.10;99.90;;;;;;5024421;28;20411;-73
2022/11/05 01:42:52;;;;;;;16.57;10.43;;;11.20;99.90;;;;;;5029237;28;20484;-73
2022/11/05 01:45:38;;;;;;;18.37;10.07;;;11.20;99.90;;;;;;5027386;28;20444;-73
2022/11/05 01:48:27;;;;;;;12.30;9.67;;;11.20;99.90;;;;;;5024061;28;20472;-73
2022/11/05 01:51:17;;;;;;;11.53;9.60;;;11.20;99.90;;;;;;5028594;28;20466;-73
2022/11/05 01:54:07;;;;;;;14.10;11.10;;;11.20;99.90;;;;;;5022111;28;20479;-73
2022/11/05 01:56:55;;;;;;;15.33;11.27;;;11.20;99.90;;;;;;5026068;28;20456;-73
2022/11/05 01:59:44;;;;;;;11.87;10.40;;;11.10;99.90;;;;;;5039423;28;20423;-73
2022/11/05 02:02:31;;;;;;;17.07;10.47;;;11.00;99.90;;;;;;5031259;28;20520;-73
2022/11/05 02:05:17;;;;;;;13.53;10.00;;;11.10;99.90;;;;;;5028688;28;20799;-74
2022/11/05 02:08:04;;;;;;;12.30;10.80;;;11.00;99.90;;;;;;5029556;28;20462;-73
2022/11/05 02:10:51;;;;;;;13.93;10.63;;;11.00;99.90;;;;;;5028041;28;20438;-74
2022/11/05 02:13:37;;;;;;;14.83;11.90;;;11.00;99.90;;;;;;5028837;28;20464;-73
2022/11/05 02:16:36;;;;;;;18.43;12.07;;;11.00;99.90;;;;;;5028629;28;20422;-73
2022/11/05 02:20:03;;;;;;;14.83;10.93;;;11.10;99.90;;;;;;5026296;28;20795;-73
2022/11/05 02:23:28;;;;;;;15.50;11.07;;;11.10;99.90;;;;;;5026340;28;20464;-73
2022/11/05 02:26:46;;;;;;;13.20;10.30;;;11.10;99.90;;;;;;5025713;28;20544;-73
2022/11/05 02:30:04;;;;;;;12.37;10.20;;;11.00;99.90;;;;;;5031395;28;20778;-73
2022/11/05 02:33:10;;;;;;;13.10;10.33;;;11.00;99.90;;;;;;5027772;28;21053;-73
2022/11/05 02:36:26;;;;;;;19.27;11.17;;;11.10;99.90;;;;;;5026232;28;20426;-74
2022/11/05 02:39:26;;;;;;;12.40;9.97;;;11.10;99.90;;;;;;5026624;28;20444;-73
2022/11/05 02:42:20;;;;;;;14.03;11.20;;;11.20;99.90;;;;;;5019299;28;20459;-73
2022/11/05 02:45:16;;;;;;;17.60;11.67;;;11.10;99.90;;;;;;5032263;28;20809;-73
2022/11/05 02:48:13;;;;;;;14.53;11.60;;;10.90;99.90;;;;;;5023940;28;20489;-73
2022/11/05 02:51:05;;;;;;;13.63;10.23;;;11.00;99.90;;;;;;5023771;28;20550;-73
2022/11/05 02:53:57;;;;;;;15.70;11.37;;;11.10;99.90;;;;;;5028935;28;20475;-73
2022/11/05 02:56:47;;;;;;;15.60;11.10;;;11.10;99.90;;;;;;5025701;28;20514;-74
2022/11/05 02:59:32;;;;;;;12.27;9.67;;;11.10;99.90;;;;;;5019281;28;20595;-73
2022/11/05 03:02:17;;;;;;;16.60;10.67;;;11.00;99.90;;;;;;5020864;28;20552;-72
2022/11/05 03:05:05;;;;;;;22.80;10.33;;;11.00;99.90;;;;;;5025888;28;20449;-72
2022/11/05 03:07:56;;;;;;;14.10;11.47;;;11.00;99.90;;;;;;5024498;28;20459;-72
2022/11/05 03:10:51;;;;;;;13.73;10.70;;;11.00;99.90;;;;;;5025703;28;20468;-72
2022/11/05 03:13:47;;;;;;;11.43;9.57;;;10.90;99.90;;;;;;5022939;28;20468;-72
2022/11/05 03:16:39;;;;;;;15.93;10.50;;;10.90;99.90;;;;;;5025955;28;20498;-72
2022/11/05 03:19:35;;;;;;;12.13;10.07;;;10.80;99.90;;;;;;5022718;28;20829;-73
2022/11/05 03:22:26;;;;;;;13.20;10.57;;;10.80;99.90;;;;;;5023990;28;20448;-72
2022/11/05 03:25:17;;;;;;;15.50;10.47;;;10.80;99.90;;;;;;5028684;28;20994;-73
2022/11/05 03:28:06;;;;;;;11.60;8.97;;;10.80;99.90;;;;;;5026071;28;20458;-72
2022/11/05 03:30:55;;;;;;;14.43;10.70;;;10.80;99.90;;;;;;5032756;28;20423;-74
2022/11/05 03:33:43;;;;;;;18.63;10.80;;;10.80;99.90;;;;;;5036128;28;20453;-74
2022/11/05 03:36:33;;;;;;;16.03;10.63;;;10.90;99.90;;;;;;5022254;28;21048;-73
2022/11/05 03:39:26;;;;;;;13.80;10.17;;;10.80;99.90;;;;;;5024883;28;20457;-74
2022/11/05 03:42:16;;;;;;;12.83;10.07;;;10.90;99.90;;;;;;5022187;28;20438;-73
2022/11/05 03:45:08;;;;;;;15.77;9.70;;;10.90;99.90;;;;;;5018343;28;20440;-73
2022/11/05 03:47:58;;;;;;;10.93;8.07;;;11.00;99.90;;;;;;5025476;28;20527;-73
2022/11/05 03:50:53;;;;;;;10.70;7.07;;;10.90;99.90;;;;;;5026075;28;20427;-73
2022/11/05 03:53:46;;;;;;;9.47;7.90;;;10.90;99.90;;;;;;5026842;28;20450;-73
2022/11/05 03:56:37;;;;;;;11.93;7.53;;;10.90;99.90;;;;;;5025735;28;20423;-73
2022/11/05 03:59:23;;;;;;;9.97;8.00;;;10.90;99.90;;;;;;5030648;28;20425;-73
2022/11/05 04:02:09;;;;;;;10.40;7.17;;;10.90;99.90;;;;;;5015827;28;20961;-74
2022/11/05 04:04:55;;;;;;;10.17;8.00;;;10.90;99.90;;;;;;5027982;28;20776;-73
2022/11/05 04:13:50;;;;;;;21.90;9.00;;;11.00;99.90;;;;;;5027381;28;20450;-73
2022/11/05 04:25:47;;;;;;;8.80;7.63;;;11.10;99.90;;;;;;5025799;28;20457;-73
2022/11/05 04:31:33;;;;;;;13.70;8.63;;;11.00;99.90;;;;;;5022624;28;20438;-73
2022/11/05 04:34:20;;;;;;;10.20;7.33;;;11.00;99.90;;;;;;5023434;28;20482;-74
2022/11/05 04:37:06;;;;;;;12.17;7.40;;;10.90;99.90;;;;;;5021404;28;20515;-73
2022/11/05 04:39:52;;;;;;;11.53;7.97;;;10.90;99.90;;;;;;5022179;28;21095;-73
2022/11/05 04:42:37;;;;;;;10.23;7.67;;;11.00;99.90;;;;;;5022281;28;21696;-73
2022/11/05 04:45:23;;;;;;;10.50;7.20;;;10.90;99.90;;;;;;5027659;28;20451;-73
2022/11/05 04:48:11;;;;;;;10.70;7.50;;;10.90;99.90;;;;;;5027918;28;20551;-73
2022/11/05 04:50:57;;;;;;;12.93;7.90;;;10.90;99.90;;;;;;5021634;28;20928;-73
2022/11/05 04:53:42;;;;;;;12.00;8.77;;;10.90;99.90;;;;;;5026928;28;20453;-73
2022/11/05 04:56:28;;;;;;;18.80;9.63;;;10.90;99.90;;;;;;5025386;28;20422;-73
2022/11/05 04:59:13;;;;;;;11.50;8.83;;;10.90;99.90;;;;;;5024509;28;20434;-73
2022/11/05 05:01:59;;;;;;;15.63;9.83;;;10.90;99.90;;;;;;5030028;28;21060;-74
2022/11/05 05:04:45;;;;;;;11.57;8.87;;;10.90;99.90;;;;;;5032988;28;20463;-73
2022/11/05 05:07:32;;;;;;;12.37;10.37;;;11.00;99.90;;;;;;5026126;28;20454;-73
2022/11/05 05:10:17;;;;;;;11.77;9.80;;;11.00;99.90;;;;;;5025587;28;20449;-73
2022/11/05 05:13:03;;;;;;;14.33;9.80;;;11.00;99.90;;;;;;5026569;28;20959;-73
2022/11/05 05:15:49;;;;;;;16.93;11.60;;;11.00;99.90;;;;;;5025625;28;20515;-73
2022/11/05 05:18:35;;;;;;;16.03;13.03;;;11.00;99.90;;;;;;5026398;28;20501;-73
2022/11/05 05:24:23;;;;;;;20.07;13.03;;;11.00;99.90;;;;;;5025227;28;20465;-73
2022/11/05 05:27:09;;;;;;;24.07;13.53;;;11.00;99.90;;;;;;5023311;28;20483;-73
2022/11/05 05:29:56;;;;;;;24.00;15.10;;;11.00;99.90;;;;;;5027682;28;21064;-73
2022/11/05 05:32:41;;;;;;;20.30;14.50;;;10.90;99.90;;;;;;5027217;28;20806;-74
2022/11/05 05:35:27;;;;;;;24.27;16.20;;;10.90;99.90;;;;;;5025389;28;20809;-73
2022/11/05 05:38:14;;;;;;;16.90;12.80;;;10.90;99.90;;;;;;5033550;28;20414;-73
2022/11/05 05:41:00;;;;;;;19.80;14.10;;;10.80;99.90;;;;;;5026527;28;20423;-73
2022/11/05 05:43:46;;;;;;;19.50;14.63;;;10.80;99.90;;;;;;5021764;28;21332;-73
2022/11/05 05:46:32;;;;;;;16.17;13.17;;;10.80;99.90;;;;;;5021907;28;20474;-73
2022/11/05 05:49:18;;;;;;;16.77;13.20;;;10.80;99.90;;;;;;5030683;28;20916;-73
2022/11/05 05:52:04;;;;;;;24.80;16.03;;;10.80;99.90;;;;;;5021758;28;20745;-73
2022/11/05 05:54:51;;;;;;;21.43;13.83;;;10.80;99.90;;;;;;5039756;28;20428;-73
2022/11/05 05:57:36;;;;;;;23.73;14.40;;;10.90;99.90;;;;;;5027587;28;20798;-73
2022/11/05 06:00:22;;;;;;;20.30;14.37;;;10.90;99.90;;;;;;5032936;28;20419;-73
2022/11/05 06:03:07;;;;;;;23.10;15.60;;;10.90;99.90;;;;;;5025524;28;20447;-73
2022/11/05 06:05:53;;;;;;;21.00;15.03;;;10.90;99.90;;;;;;5022252;28;20514;-73
2022/11/05 06:08:38;;;;;;;20.97;15.47;;;10.80;99.90;;;;;;5019672;28;20467;-73
2022/11/05 06:11:25;;;;;;;22.17;14.47;;;10.70;99.90;;;;;;5022065;28;20447;-73
2022/11/05 06:14:12;;;;;;;23.70;14.97;;;10.60;99.90;;;;;;5030364;28;20996;-73
2022/11/05 06:16:57;;;;;;;18.07;13.60;;;10.50;99.90;;;;;;5023284;28;20455;-73
2022/11/05 06:19:43;;;;;;;20.63;14.23;;;10.50;99.90;;;;;;5025024;28;20605;-73
2022/11/05 06:22:28;;;;;;;20.03;14.30;;;10.50;99.90;;;;;;5025763;28;20448;-73
2022/11/05 06:25:14;;;;;;;24.63;15.10;;;10.40;99.90;;;;;;5031255;28;20445;-73
2022/11/05 06:28:01;;;;;;;21.23;14.77;;;10.20;99.90;;;;;;5034122;28;20467;-73
2022/11/05 06:30:51;;;;;;;22.00;14.90;;;10.20;99.90;;;;;;5025116;28;20876;-73
2022/11/05 06:33:37;;;;;;;21.00;13.00;;;10.30;99.90;;;;;;5022876;28;20556;-73
2022/11/05 06:36:22;;;;;;;19.60;11.67;;;10.30;99.90;;;;;;5025950;28;20452;-73
2022/11/05 06:39:10;;;;;;;16.77;11.30;;;10.20;99.90;;;;;;5028954;28;20449;-73
2022/11/05 06:41:56;;;;;;;16.27;10.87;;;10.10;99.90;;;;;;5029061;28;20451;-73
2022/11/05 06:44:42;;;;;;;12.53;8.90;;;10.00;99.90;;;;;;5024883;28;21482;-73
2022/11/05 06:47:28;;;;;;;11.10;8.80;;;9.90;99.90;;;;;;5030457;28;20582;-73
2022/11/05 06:50:13;;;;;;;11.77;8.83;;;10.00;99.90;;;;;;5035738;28;20494;-73
2022/11/05 06:53:00;;;;;;;13.47;9.37;;;10.00;99.90;;;;;;5033769;28;20480;-73
2022/11/05 06:55:47;;;;;;;10.77;7.80;;;10.00;99.90;;;;;;5031336;28;20403;-73
2022/11/05 06:58:33;;;;;;;11.43;7.83;;;10.00;99.90;;;;;;5025734;28;20439;-73
2022/11/05 07:01:20;;;;;;;12.97;8.37;;;10.10;99.90;;;;;;5023909;28;20474;-73
2022/11/05 07:04:06;;;;;;;15.77;8.07;;;10.10;99.90;;;;;;5037929;28;20522;-73
2022/11/05 07:06:51;;;;;;;11.73;8.20;;;10.10;99.90;;;;;;5022961;28;20437;-73
2022/11/05 07:09:39;;;;;;;12.77;7.23;;;10.20;99.90;;;;;;5023389;28;20446;-73
2022/11/05 07:12:24;;;;;;;14.07;7.90;;;10.20;99.90;;;;;;5024658;28;20490;-73
2022/11/05 07:15:12;;;;;;;20.53;9.27;;;10.20;99.90;;;;;;5025869;28;20534;-73
2022/11/05 07:18:00;;;;;;;15.37;8.67;;;10.20;99.90;;;;;;5030463;28;20479;-73
2022/11/05 07:20:46;;;;;;;11.50;7.33;;;10.30;99.90;;;;;;5018372;28;20460;-73
2022/11/05 07:23:31;;;;;;;15.17;8.13;;;10.30;99.90;;;;;;5030197;28;20454;-73
2022/11/05 07:26:17;;;;;;;11.00;7.00;;;10.40;99.90;;;;;;5025576;28;20448;-73
2022/11/05 07:29:03;;;;;;;12.90;7.90;;;10.40;99.90;;;;;;5018409;28;20815;-73
2022/11/05 07:31:48;;;;;;;13.83;6.73;;;10.50;99.90;;;;;;5022601;28;20410;-73
2022/11/05 07:34:35;;;;;;;10.23;6.57;;;10.50;99.90;;;;;;5023200;28;20442;-73
2022/11/05 07:37:21;;;;;;;11.80;6.67;;;10.50;99.90;;;;;;5019405;28;20423;-73
2022/11/05 07:40:08;;;;;;;9.60;6.53;;;10.50;99.90;;;;;;5022991;28;20507;-73
2022/11/05 07:42:55;;;;;;;10.53;7.20;;;10.40;99.90;;;;;;5020633;28;20500;-73
2022/11/05 07:45:40;;;;;;;11.30;6.57;;;10.40;99.90;;;;;;5019404;28;20453;-73
2022/11/05 07:48:26;;;;;;;9.67;6.93;;;10.30;99.90;;;;;;5036684;28;20471;-73
2022/11/05 07:51:13;;;;;;;10.23;7.30;;;10.30;99.90;;;;;;5020106;28;20447;-73
2022/11/05 07:53:59;;;;;;;10.70;6.60;;;10.30;99.90;;;;;;5022453;28;20484;-73
2022/11/05 07:56:47;;;;;;;8.23;6.50;;;10.40;99.90;;;;;;5018953;28;20445;-73
2022/11/05 07:59:32;;;;;;;11.30;6.50;;;10.40;99.90;;;;;;5020744;28;20452;-73
2022/11/05 08:02:18;;;;;;;11.97;6.43;;;10.50;99.90;;;;;;5041064;28;20406;-73
2022/11/05 08:05:04;;;;;;;10.40;7.23;;;10.50;99.90;;;;;;5044290;28;20470;-73
2022/11/05 08:07:53;;;;;;;11.90;7.03;;;10.50;99.90;;;;;;5038351;28;20970;-73
2022/11/05 08:10:39;;;;;;;9.17;6.33;;;10.50;99.90;;;;;;5024136;28;20445;-74
2022/11/05 08:13:24;;;;;;;11.20;6.83;;;10.50;99.90;;;;;;5035413;28;21109;-73
2022/11/05 08:16:10;;;;;;;11.40;7.20;;;10.50;99.90;;;;;;5037387;28;20743;-73
2022/11/05 08:18:55;;;;;;;12.90;6.63;;;10.40;99.90;;;;;;5031573;28;20596;-73
2022/11/05 08:21:41;;;;;;;11.00;7.13;;;10.40;99.90;;;;;;5081971;23;20465;-80
2022/11/05 08:24:27;;;;;;;10.63;6.63;;;10.50;99.90;;;;;;5065770;28;20433;-81
2022/11/05 08:27:13;;;;;;;16.00;7.40;;;10.50;99.90;;;;;;5067608;28;20463;-80
2022/11/05 08:29:59;;;;;;;16.10;7.87;;;10.50;99.90;;;;;;5058404;28;20498;-80
2022/11/05 08:32:44;;;;;;;13.60;7.13;;;10.60;99.90;;;;;;5069443;28;20398;-80
2022/11/05 08:35:31;;;;;;;11.93;7.23;;;10.60;99.90;;;;;;5065894;28;20461;-81
2022/11/05 08:38:17;;;;;;;14.27;7.90;;;10.70;99.90;;;;;;5060167;28;20798;-80
2022/11/05 08:41:04;;;;;;;11.87;6.80;;;10.80;99.90;;;;;;5064874;28;20811;-80
2022/11/05 08:43:50;;;;;;;11.40;8.10;;;10.90;99.90;;;;;;5061919;28;20588;-80
2022/11/05 08:46:36;;;;;;;10.00;7.53;;;11.00;99.90;;;;;;5066027;28;20844;-80
2022/11/05 08:49:21;;;;;;;10.80;7.33;;;11.00;99.90;;;;;;5061382;28;20500;-80
2022/11/05 08:52:07;;;;;;;21.67;8.30;;;11.00;99.90;;;;;;5067201;28;20486;-80
2022/11/05 08:54:53;;;;;;;14.60;8.70;;;11.00;99.90;;;;;;5066826;28;20512;-81
2022/11/05 08:57:40;;;;;;;13.50;7.93;;;11.10;99.90;;;;;;5067564;28;20997;-81
2022/11/05 09:00:26;;;;;;;10.67;7.50;;;11.10;99.90;;;;;;5064707;28;21245;-77
2022/11/05 09:03:12;;;;;;;13.43;8.90;;;11.10;99.90;;;;;;5065258;28;20424;-80
2022/11/05 09:05:57;;;;;;;16.00;9.10;;;11.10;99.90;;;;;;5070538;28;20787;-81
2022/11/05 09:08:43;;;;;;;17.50;8.00;;;11.10;99.90;;;;;;5064589;28;20550;-80
2022/11/05 09:11:28;;;;;;;17.57;9.50;;;11.10;99.90;;;;;;5064297;28;20528;-80
2022/11/05 09:14:16;;;;;;;11.97;8.67;;;11.10;99.90;;;;;;5067497;28;20461;-79
2022/11/05 09:17:01;;;;;;;13.80;8.80;;;11.10;99.90;;;;;;5073481;28;20437;-80
2022/11/05 09:19:47;;;;;;;13.77;9.87;;;11.10;99.90;;;;;;5075848;28;20424;-80
2022/11/05 09:22:33;;;;;;;12.90;9.30;;;11.10;99.90;;;;;;5072834;28;20805;-80
2022/11/05 09:25:19;;;;;;;16.03;10.60;;;11.10;99.90;;;;;;5071838;28;20528;-80
2022/11/05 09:28:09;;;;;;;13.40;9.10;;;11.00;99.90;;;;;;5068346;28;20507;-79
2022/11/05 09:30:55;;;;;;;17.20;10.33;;;11.00;99.90;;;;;;5072857;28;20462;-81
2022/11/05 09:33:41;;;;;;;14.50;10.40;;;11.00;99.90;;;;;;5071131;28;20483;-80
2022/11/05 09:36:27;;;;;;;16.80;11.27;;;10.80;99.90;;;;;;5070178;28;20946;-80
2022/11/05 09:39:13;;;;;;;14.83;10.17;;;10.70;99.90;;;;;;5064027;28;20439;-79
2022/11/05 09:42:03;;;;;;;23.60;13.20;;;10.70;99.90;;;;;;5071605;28;20434;-80
2022/11/05 09:44:54;;;;;;;16.20;11.37;;;10.80;99.90;;;;;;5070728;28;20476;-79
2022/11/05 09:47:46;;;;;;;16.00;11.00;;;10.80;99.90;;;;;;5065550;28;20489;-80
2022/11/05 09:50:36;;;;;;;14.67;10.27;;;10.80;99.90;;;;;;5078132;28;20571;-80
2022/11/05 09:53:24;;;;;;;25.80;13.40;;;10.80;99.90;;;;;;5068032;28;20437;-80
2022/11/05 09:56:21;;;;;;;18.90;12.17;;;10.70;99.90;;;;;;5069460;28;20481;-80
2022/11/05 09:59:17;;;;;;;18.13;12.03;;;10.80;99.90;;;;;;5065873;28;20485;-81
2022/11/05 10:02:12;;;;;;;21.33;12.10;;;10.80;99.90;;;;;;5074247;28;20421;-81
2022/11/05 10:05:04;;;;;;;18.83;12.70;;;10.80;99.90;;;;;;5072283;28;20435;-80
2022/11/05 10:07:53;;;;;;;23.70;14.10;;;10.80;99.90;;;;;;5069609;28;21151;-81
2022/11/05 10:10:43;;;;;;;19.40;13.17;;;10.80;99.90;;;;;;5064126;28;21246;-79
2022/11/05 10:13:35;;;;;;;19.57;11.57;;;10.90;99.90;;;;;;5075645;28;20803;-79
2022/11/05 10:16:25;;;;;;;15.47;10.23;;;10.90;99.90;;;;;;5070004;28;20934;-82
2022/11/05 10:19:15;;;;;;;34.10;20.30;;;10.80;99.90;;;;;;5067092;28;20978;-83
2022/11/05 10:22:11;;;;;;;19.77;13.00;;;10.70;99.90;;;;;;5069742;28;20447;-80
2022/11/05 10:24:56;;;;;;;24.60;14.60;;;10.80;99.90;;;;;;5064898;28;20441;-79
2022/11/05 10:27:44;;;;;;;33.07;21.27;;;10.80;99.90;;;;;;5063831;28;20443;-79
2022/11/05 10:30:29;;;;;;;16.63;12.97;;;10.80;99.90;;;;;;5069991;28;20500;-80
2022/11/05 10:33:21;;;;;;;23.10;12.80;;;10.80;99.90;;;;;;5071497;28;20458;-80
2022/11/05 10:36:11;;;;;;;16.70;11.40;;;10.80;99.90;;;;;;5072650;28;20442;-81
2022/11/05 10:39:02;;;;;;;19.87;12.20;;;10.90;99.90;;;;;;5075081;28;20454;-78
2022/11/05 10:42:03;;;;;;;17.83;11.33;;;11.00;99.90;;;;;;5073873;28;20517;-81
2022/11/05 10:44:54;;;;;;;19.03;11.33;;;11.30;99.90;;;;;;5069510;28;20951;-80
2022/11/05 10:47:51;;;;;;;16.73;11.00;;;11.50;99.90;;;;;;5068146;28;20422;-81
2022/11/05 10:50:38;;;;;;;27.03;11.43;;;11.70;99.90;;;;;;5073995;28;20470;-79
2022/11/05 10:53:29;;;;;;;18.73;11.17;;;11.90;99.90;;;;;;5071723;28;20450;-81
2022/11/05 10:56:37;;;;;;;19.90;10.30;;;12.10;99.90;;;;;;5072206;28;20425;-81
2022/11/05 10:59:24;;;;;;;20.30;10.20;;;12.10;99.90;;;;;;5067755;28;20445;-80
2022/11/05 11:02:20;;;;;;;14.53;9.40;;;12.20;99.90;;;;;;5069579;28;20439;-81
2022/11/05 11:05:06;;;;;;;19.10;9.87;;;12.30;99.90;;;;;;5070464;28;20446;-79
2022/11/05 11:08:01;;;;;;;11.50;8.17;;;12.30;99.90;;;;;;5068042;28;20984;-80
2022/11/05 11:10:51;;;;;;;19.37;9.47;;;12.30;99.90;;;;;;5066285;28;20452;-80
2022/11/05 11:13:58;;;;;;;15.57;10.47;;;12.30;99.90;;;;;;5072150;28;20405;-80
2022/11/05 11:16:45;;;;;;;16.60;10.83;;;12.30;99.90;;;;;;5071373;28;20912;-79
2022/11/05 11:19:32;;;;;;;17.13;10.63;;;12.10;99.90;;;;;;5081259;28;20422;-81
2022/11/05 11:22:20;;;;;;;18.97;9.80;;;12.00;99.90;;;;;;5080327;28;20484;-80
2022/11/05 11:25:23;;;;;;;18.33;12.07;;;12.10;99.90;;;;;;5077477;28;20478;-79
2022/11/05 11:28:21;;;;;;;20.70;11.10;;;12.20;99.90;;;;;;5077081;28;20956;-79
2022/11/05 11:31:13;;;;;;;16.77;10.93;;;12.40;99.90;;;;;;5078986;28;20413;-80
2022/11/05 11:34:02;;;;;;;16.83;9.60;;;12.60;99.90;;;;;;5083985;28;20450;-81
2022/11/05 11:36:50;;;;;;;18.40;10.60;;;12.70;99.90;;;;;;5076230;28;20823;-79
2022/11/05 11:39:38;;;;;;;16.50;10.50;;;12.70;99.90;;;;;;5083210;28;20409;-80
2022/11/05 11:42:30;;;;;;;14.30;9.30;;;12.80;99.90;;;;;;5074794;28;20457;-79
2022/11/05 11:45:20;;;;;;;11.43;8.17;;;12.80;99.90;;;;;;5069676;28;20446;-80
2022/11/05 11:48:16;;;;;;;15.63;10.40;;;12.60;99.90;;;;;;5069502;28;20420;-79
2022/11/05 11:51:17;;;;;;;13.23;9.60;;;12.50;99.90;;;;;;5074950;28;20486;-81
2022/11/05 11:54:04;;;;;;;28.00;10.40;;;12.50;99.90;;;;;;5075996;28;20790;-77
2022/11/05 11:56:50;;;;;;;17.07;10.20;;;12.40;99.90;;;;;;5074531;28;20429;-80
2022/11/05 11:59:35;;;;;;;11.80;9.50;;;12.50;99.90;;;;;;5068485;28;20963;-80
2022/11/05 12:02:47;;;;;;;13.40;7.93;;;12.70;99.90;;;;;;5067630;28;20425;-81
2022/11/05 12:05:41;;;;;;;13.23;7.53;;;12.90;99.90;;;;;;5076411;28;20426;-81
2022/11/05 12:08:40;;;;;;;13.70;6.70;;;13.20;99.90;;;;;;5082144;28;20803;-81
2022/11/05 12:11:31;;;;;;;10.57;7.03;;;13.40;99.90;;;;;;5069926;28;20839;-81
2022/11/05 12:14:28;;;;;;;9.57;5.77;;;13.50;99.90;;;;;;5076533;28;20499;-81
2022/11/05 12:17:25;;;;;;;13.73;6.87;;;13.60;99.90;;;;;;5067820;28;20511;-79
2022/11/05 12:20:30;;;;;;;9.80;5.83;;;13.60;99.90;;;;;;5075818;28;20576;-80
2022/11/05 12:23:37;;;;;;;13.43;6.30;;;13.50;99.90;;;;;;5073123;28;20443;-81
2022/11/05 12:26:34;;;;;;;10.07;6.63;;;13.40;99.90;;;;;;5070325;28;20455;-81
2022/11/05 12:29:34;;;;;;;9.90;7.40;;;13.30;99.90;;;;;;5072459;28;20489;-80
2022/11/05 12:32:43;;;;;;;10.90;7.10;;;13.20;99.90;;;;;;5069736;28;20446;-81
2022/11/05 12:35:41;;;;;;;11.70;7.10;;;13.10;99.90;;;;;;5075749;28;20489;-81
2022/11/05 12:38:48;;;;;;;12.70;6.13;;;13.10;99.90;;;;;;5072787;28;20425;-81
2022/11/05 12:41:42;;;;;;;11.50;5.77;;;13.20;99.90;;;;;;5085746;28;20477;-80
2022/11/05 12:44:44;;;;;;;9.57;6.50;;;13.40;99.90;;;;;;5072505;28;20585;-81
2022/11/05 12:47:52;;;;;;;8.80;6.70;;;13.50;99.90;;;;;;5069440;28;20416;-81
2022/11/05 12:50:45;;;;;;;14.30;7.10;;;13.90;99.90;;;;;;5069789;28;20449;-81
2022/11/05 12:53:54;;;;;;;8.70;6.00;;;14.10;99.90;;;;;;5076770;28;20880;-80
2022/11/05 12:56:44;;;;;;;11.47;6.60;;;13.90;99.90;;;;;;5071635;28;20421;-80
2022/11/05 12:59:36;;;;;;;8.50;5.83;;;13.90;99.90;;;;;;5081066;28;20467;-76
2022/11/05 13:02:25;;;;;;;11.03;6.70;;;13.80;99.90;;;;;;5075489;28;20910;-79
2022/11/05 13:05:16;;;;;;;12.10;7.43;;;13.60;99.90;;;;;;5083125;28;20453;-81
2022/11/05 13:08:06;;;;;;;11.63;5.83;;;13.20;99.90;;;;;;5071720;28;20424;-80
2022/11/05 13:10:58;;;;;;;8.30;5.33;;;13.00;99.90;;;;;;5069185;28;20472;-77
2022/11/05 13:13:49;;;;;;;21.30;6.30;;;12.90;99.90;;;;;;5072592;28;20451;-81
2022/11/05 13:16:37;;;;;;;10.90;5.87;;;12.70;99.90;;;;;;5066626;28;20430;-80
2022/11/05 13:19:26;;;;;;;14.63;5.93;;;12.70;99.90;;;;;;5081117;28;20487;-81
2022/11/05 13:22:20;;;;;;;10.23;6.10;;;12.70;99.90;;;;;;5082454;28;20473;-81
2022/11/05 13:25:17;;;;;;;14.50;5.53;;;12.70;99.90;;;;;;5086161;28;20480;-82
2022/11/05 13:28:12;;;;;;;8.90;6.10;;;12.70;99.90;;;;;;5072976;28;20442;-81
2022/11/05 13:31:01;;;;;;;8.93;5.50;;;12.70;99.90;;;;;;5074545;28;20590;-82
2022/11/05 13:33:49;;;;;;;10.53;4.80;;;12.60;99.90;;;;;;5080498;28;20430;-81
2022/11/05 13:39:49;;;;;;;8.63;4.90;;;12.60;99.90;;;;;;5071322;28;20463;-81
2022/11/05 13:42:56;;;;;;;9.53;5.63;;;12.60;99.90;;;;;;5073778;28;20440;-83
2022/11/05 13:46:11;;;;;;;7.30;4.50;;;12.40;99.90;;;;;;5062484;28;20442;-83
2022/11/05 13:49:21;;;;;;;13.20;4.10;;;12.30;99.90;;;;;;5051345;28;20991;-82
2022/11/05 13:52:30;;;;;;;9.93;5.97;;;12.40;99.90;;;;;;5083628;28;20412;-82
2022/11/05 13:55:37;;;;;;;9.23;5.23;;;12.30;99.90;;;;;;5073622;28;20423;-81
2022/11/05 13:58:51;;;;;;;12.30;5.00;;;12.20;99.90;;;;;;5069462;28;20431;-82
2022/11/05 14:01:48;;;;;;;15.33;7.53;;;12.20;99.90;;;;;;5070976;28;20506;-82
2022/11/05 14:04:37;;;;;;;13.30;5.53;;;12.00;99.90;;;;;;5085365;28;20789;-82
2022/11/05 14:07:26;;;;;;;7.83;4.80;;;12.10;99.90;;;;;;5073632;28;20435;-82
2022/11/05 14:10:35;;;;;;;6.67;4.13;;;12.10;99.90;;;;;;5074193;28;20533;-83
2022/11/05 14:13:25;;;;;;;16.53;5.00;;;12.20;99.90;;;;;;5072456;28;20416;-82
2022/11/05 14:16:17;;;;;;;9.70;5.40;;;12.30;99.90;;;;;;5069403;28;20502;-82
2022/11/05 14:19:33;;;;;;;7.40;4.93;;;12.30;99.90;;;;;;5075644;28;20449;-83
2022/11/05 14:22:35;;;;;;;15.20;5.57;;;12.20;99.90;;;;;;5078734;22;20475;-74
2022/11/05 14:26:00;;;;;;;11.97;5.17;;;12.10;99.90;;;;;;5053931;28;20533;-74
2022/11/05 14:28:48;;;;;;;15.10;5.63;;;12.20;99.90;;;;;;5054325;28;20442;-74
2022/11/05 14:31:41;;;;;;;6.00;4.60;;;12.10;99.90;;;;;;5051639;28;20450;-74
2022/11/05 14:34:53;;;;;;;7.20;3.60;;;12.20;99.90;;;;;;5051229;28;20430;-74
2022/11/05 14:37:41;;;;;;;6.00;3.10;;;12.20;99.90;;;;;;5053250;28;20454;-74
2022/11/05 14:40:33;;;;;;;6.60;2.70;;;12.20;99.90;;;;;;5047313;28;20410;-74
2022/11/05 14:43:22;;;;;;;6.80;2.50;;;12.20;99.90;;;;;;5055973;28;20582;-74
2022/11/05 14:46:08;;;;;;;5.13;2.47;;;12.10;99.90;;;;;;5053353;28;20422;-74
2022/11/05 14:49:00;;;;;;;5.80;2.57;;;12.10;99.90;;;;;;5052117;28;20427;-74
2022/11/05 14:51:50;;;;;;;7.13;2.77;;;12.00;99.90;;;;;;5069669;28;20425;-74
2022/11/05 14:54:41;;;;;;;5.90;2.90;;;12.00;99.90;;;;;;5050471;28;20477;-74
2022/11/05 14:58:03;;;;;;;5.10;2.70;;;12.10;99.90;;;;;;5051878;28;20493;-75
2022/11/05 15:00:49;;;;;;;3.87;2.73;;;12.10;99.90;;;;;;5056765;28;20938;-75
2022/11/05 15:04:00;;;;;;;4.43;2.90;;;12.20;99.90;;;;;;5053580;28;20431;-75
2022/11/05 15:07:31;;;;;;;6.77;2.80;;;12.20;99.90;;;;;;5037710;28;20946;-75
2022/11/05 15:10:17;;;;;;;3.13;2.30;;;12.20;99.90;;;;;;5046876;28;20500;-75
2022/11/05 15:13:06;;;;;;;4.23;2.47;;;12.10;99.90;;;;;;5050630;28;20463;-74
2022/11/05 15:15:52;;;;;;;9.33;2.40;;;12.00;99.90;;;;;;5050936;28;20963;-75
2022/11/05 15:18:44;;;;;;;2.90;2.13;;;12.00;99.90;;;;;;5060146;28;20483;-75
2022/11/05 15:21:34;;;;;;;3.67;2.27;;;12.00;99.90;;;;;;5048499;28;20831;-75